createdAt,value
2022-12-19T00:01:58.541Z,-4.15
2022-12-19T00:04:32.349Z,-4.00
2022-12-19T00:07:02.370Z,-4.11
2022-12-19T00:09:31.452Z,-4.09
2022-12-19T00:12:00.806Z,-4.14
2022-12-19T00:14:29.819Z,-4.12
2022-12-19T00:16:57.539Z,-4.19
2022-12-19T00:19:26.207Z,-4.13
2022-12-19T00:21:54.113Z,-4.17
2022-12-19T00:24:22.044Z,-4.06
2022-12-19T00:26:51.163Z,-4.14
2022-12-19T00:29:19.222Z,-4.10
2022-12-19T00:31:47.457Z,-4.05
2022-12-19T00:34:19.661Z,-4.05
2022-12-19T00:36:47.955Z,-4.04
2022-12-19T00:39:16.211Z,-4.12
2022-12-19T00:41:46.835Z,-3.96
2022-12-19T00:44:21.552Z,-4.01
2022-12-19T00:46:52.624Z,-3.93
2022-12-19T00:49:23.595Z,-3.84
2022-12-19T00:51:51.315Z,-4.02
2022-12-19T00:54:19.680Z,-3.75
2022-12-19T00:56:48.081Z,-3.87
2022-12-19T00:59:18.081Z,-3.92
2022-12-19T01:01:56.007Z,-3.97
2022-12-19T01:04:29.402Z,-3.91
2022-12-19T01:07:02.783Z,-4.02
2022-12-19T01:09:31.268Z,-4.02
2022-12-19T01:12:16.610Z,-3.97
2022-12-19T01:14:44.233Z,-4.04
2022-12-19T01:17:13.451Z,-3.95
2022-12-19T01:19:44.321Z,-3.93
2022-12-19T01:22:12.764Z,-3.91
2022-12-19T01:24:41.264Z,-3.87
2022-12-19T01:27:09.121Z,-3.73
2022-12-19T01:29:50.782Z,-3.94
2022-12-19T01:32:21.635Z,-3.85
2022-12-19T01:34:49.447Z,-3.96
2022-12-19T01:37:20.431Z,-3.90
2022-12-19T01:39:48.215Z,-4.00
2022-12-19T01:42:23.671Z,-3.88
2022-12-19T01:45:33.896Z,-3.87
2022-12-19T01:48:08.904Z,-3.97
2022-12-19T01:50:41.434Z,-3.89
2022-12-19T01:53:31.667Z,-3.86
2022-12-19T01:55:59.277Z,-3.76
2022-12-19T01:58:26.824Z,-3.82
2022-12-19T02:00:54.571Z,-3.68
2022-12-19T02:03:27.821Z,-3.78
2022-12-19T02:05:56.441Z,-3.65
2022-12-19T02:08:24.759Z,-3.67
2022-12-19T02:10:52.441Z,-3.64
2022-12-19T02:13:21.034Z,-3.66
2022-12-19T02:15:53.300Z,-3.69
2022-12-19T02:18:29.513Z,-3.67
2022-12-19T02:21:14.391Z,-3.75
2022-12-19T02:24:14.663Z,-3.71
2022-12-19T02:27:23.090Z,-3.71
2022-12-19T02:30:05.653Z,-3.66
2022-12-19T02:32:38.265Z,-3.63
2022-12-19T02:35:11.930Z,-3.63
2022-12-19T02:37:46.593Z,-3.62
2022-12-19T02:40:17.540Z,-3.64
2022-12-19T02:42:47.503Z,-3.64
2022-12-19T02:45:28.612Z,-3.60
2022-12-19T02:47:58.793Z,-3.65
2022-12-19T02:50:37.802Z,-3.58
2022-12-19T02:53:05.548Z,-3.64
2022-12-19T02:55:34.964Z,-3.53
2022-12-19T02:58:13.580Z,-3.56
2022-12-19T03:00:51.334Z,-3.51
2022-12-19T03:03:25.396Z,-3.50
2022-12-19T03:06:00.056Z,-3.46
2022-12-19T03:08:30.941Z,-3.37
2022-12-19T03:11:00.532Z,-3.48
2022-12-19T03:13:31.487Z,-3.42
2022-12-19T03:15:59.815Z,-3.45
2022-12-19T03:18:29.115Z,-3.43
2022-12-19T03:21:04.174Z,-3.36
2022-12-19T03:23:32.246Z,-3.30
2022-12-19T03:26:03.008Z,-3.40
2022-12-19T03:28:34.332Z,-3.30
2022-12-19T03:31:02.989Z,-3.39
2022-12-19T03:33:33.353Z,-3.39
2022-12-19T03:36:04.624Z,-3.40
2022-12-19T03:38:32.620Z,-3.34
2022-12-19T03:41:00.980Z,-3.25
2022-12-19T03:43:28.922Z,-3.24
2022-12-19T03:46:03.439Z,-3.30
2022-12-19T03:48:35.977Z,-3.32
2022-12-19T03:51:10.423Z,-3.16
2022-12-19T03:53:46.480Z,-3.24
2022-12-19T03:56:18.505Z,-3.33
2022-12-19T03:58:49.326Z,-3.27
2022-12-19T04:01:17.570Z,-3.43
2022-12-19T04:03:46.779Z,-3.14
2022-12-19T04:06:14.659Z,-3.18
2022-12-19T04:08:42.823Z,-3.19
2022-12-19T04:11:16.108Z,-3.24
2022-12-19T04:13:46.178Z,-3.20
2022-12-19T04:16:19.021Z,-3.16
2022-12-19T04:18:49.530Z,-3.25
2022-12-19T04:21:21.386Z,-3.17
2022-12-19T04:23:52.015Z,-3.06
2022-12-19T04:26:20.555Z,-3.09
2022-12-19T04:28:54.162Z,-3.14
2022-12-19T04:31:22.476Z,-3.04
2022-12-19T04:33:51.439Z,-3.11
2022-12-19T04:36:19.152Z,-3.12
2022-12-19T04:38:46.872Z,-3.02
2022-12-19T04:41:14.763Z,-3.00
2022-12-19T04:43:42.393Z,-3.19
2022-12-19T04:46:10.116Z,-3.33
2022-12-19T04:48:37.899Z,-3.21
2022-12-19T04:51:07.345Z,-3.09
2022-12-19T04:53:36.447Z,-3.14
2022-12-19T04:56:05.177Z,-3.10
2022-12-19T04:58:33.202Z,-3.00
2022-12-19T05:01:02.500Z,-3.00
2022-12-19T05:03:30.215Z,-3.02
2022-12-19T05:06:04.814Z,-2.89
2022-12-19T05:08:34.165Z,-2.92
2022-12-19T05:11:02.059Z,-2.97
2022-12-19T05:13:30.465Z,-2.93
2022-12-19T05:15:58.839Z,-2.92
2022-12-19T05:18:26.690Z,-2.96
2022-12-19T05:20:54.396Z,-2.91
2022-12-19T05:23:22.630Z,-2.93
2022-12-19T05:25:51.959Z,-3.06
2022-12-19T05:28:20.152Z,-3.04
2022-12-19T05:30:52.071Z,-2.74
2022-12-19T05:33:20.236Z,-2.91
2022-12-19T05:35:49.342Z,-2.86
2022-12-19T05:38:16.947Z,-2.80
2022-12-19T05:40:44.516Z,-2.82
2022-12-19T05:43:13.466Z,-2.83
2022-12-19T05:45:41.510Z,-2.83
2022-12-19T05:48:09.582Z,-2.73
2022-12-19T05:50:37.424Z,-2.72
2022-12-19T05:53:04.971Z,-2.80
2022-12-19T05:55:32.692Z,-2.71
2022-12-19T05:58:00.279Z,-2.79
2022-12-19T06:00:29.454Z,-2.74
2022-12-19T06:02:57.240Z,-2.75
2022-12-19T06:05:25.071Z,-2.67
2022-12-19T06:07:52.765Z,-2.70
2022-12-19T06:10:20.417Z,-2.53
2022-12-19T06:12:48.014Z,-2.57
2022-12-19T06:15:16.061Z,-2.68
2022-12-19T06:17:45.205Z,-2.82
2022-12-19T06:20:13.268Z,-2.58
2022-12-19T06:22:40.842Z,-2.65
2022-12-19T06:25:09.447Z,-2.44
2022-12-19T06:27:37.165Z,-2.64
2022-12-19T06:30:05.660Z,-2.45
2022-12-19T06:32:37.719Z,-2.44
2022-12-19T06:35:08.793Z,-2.52
2022-12-19T06:37:39.325Z,-2.60
2022-12-19T06:40:28.769Z,-2.47
2022-12-19T06:42:55.429Z,-2.52
2022-12-19T06:45:25.360Z,-2.46
2022-12-19T06:47:53.086Z,-2.46
2022-12-19T06:50:22.072Z,-2.48
2022-12-19T06:52:49.702Z,-2.47
2022-12-19T06:55:17.536Z,-2.52
2022-12-19T06:57:46.450Z,-2.42
2022-12-19T07:00:15.487Z,-2.34
2022-12-19T07:02:45.318Z,-2.54
2022-12-19T07:05:13.827Z,-2.36
2022-12-19T07:07:43.029Z,-2.57
2022-12-19T07:10:11.421Z,-2.68
2022-12-19T07:12:39.221Z,-2.33
2022-12-19T07:15:08.024Z,-2.23
2022-12-19T07:17:38.963Z,-2.18
2022-12-19T07:20:10.381Z,-2.16
2022-12-19T07:22:38.461Z,-2.14
2022-12-19T07:25:09.031Z,-2.06
2022-12-19T07:27:37.967Z,-2.20
2022-12-19T07:30:08.061Z,-2.10
2022-12-19T07:32:39.569Z,-2.03
2022-12-19T07:35:08.085Z,-1.99
2022-12-19T07:37:40.559Z,-1.97
2022-12-19T07:40:13.129Z,-2.01
2022-12-19T07:42:41.305Z,-2.09
2022-12-19T07:45:09.717Z,-2.04
2022-12-19T07:47:39.523Z,-2.14
2022-12-19T07:50:10.350Z,-1.96
2022-12-19T07:52:40.866Z,-1.98
2022-12-19T07:55:10.690Z,-1.90
2022-12-19T07:57:40.756Z,-2.17
2022-12-19T08:00:10.069Z,-1.89
2022-12-19T08:02:40.963Z,-1.87
2022-12-19T08:05:09.593Z,-1.82
2022-12-19T08:07:39.353Z,-1.82
2022-12-19T08:10:08.922Z,-1.91
2022-12-19T08:12:39.662Z,-1.72
2022-12-19T08:15:11.012Z,-1.72
2022-12-19T08:17:41.434Z,-1.74
2022-12-19T08:20:12.455Z,-1.84
2022-12-19T08:22:40.851Z,-1.73
2022-12-19T08:25:12.602Z,-1.69
2022-12-19T08:27:43.325Z,-1.57
2022-12-19T08:30:14.489Z,-1.67
2022-12-19T08:32:42.294Z,-1.59
2022-12-19T08:35:11.000Z,-1.66
2022-12-19T08:37:39.872Z,-1.87
2022-12-19T08:40:09.955Z,-1.48
2022-12-19T08:42:38.952Z,-1.42
2022-12-19T08:45:09.948Z,-1.33
2022-12-19T08:47:37.830Z,-1.30
2022-12-19T08:50:06.947Z,-1.27
2022-12-19T08:52:34.852Z,-1.26
2022-12-19T08:55:03.266Z,-1.25
2022-12-19T08:57:32.023Z,-1.30
2022-12-19T09:00:01.241Z,-1.45
2022-12-19T09:02:31.881Z,-1.19
2022-12-19T09:05:59.558Z,-1.12
2022-12-19T09:07:48.819Z,-1.23
2022-12-19T09:10:16.750Z,-1.12
2022-12-19T09:12:45.415Z,-1.05
2022-12-19T09:15:14.409Z,-1.06
2022-12-19T09:17:45.354Z,-1.17
2022-12-19T09:20:21.260Z,-1.03
2022-12-19T09:22:51.157Z,-1.09
2022-12-19T09:25:19.746Z,-1.01
2022-12-19T09:28:25.721Z,-1.05
2022-12-19T09:30:36.552Z,-1.01
2022-12-19T09:33:06.684Z,-0.86
2022-12-19T09:35:38.878Z,-0.88
2022-12-19T09:38:09.754Z,-0.83
2022-12-19T09:40:50.641Z,-0.84
2022-12-19T09:43:32.360Z,-0.87
2022-12-19T09:46:08.890Z,-0.77
2022-12-19T09:48:38.077Z,-0.67
2022-12-19T09:51:12.989Z,-0.77
2022-12-19T09:53:54.465Z,-0.78
2022-12-19T09:56:24.131Z,-0.71
2022-12-19T09:58:57.428Z,-0.78
2022-12-19T10:01:29.909Z,-0.85
2022-12-19T10:04:04.627Z,-0.86
2022-12-19T10:07:12.513Z,-0.82
2022-12-19T10:09:57.777Z,-0.78
2022-12-19T10:12:40.779Z,-0.74
2022-12-19T10:15:16.775Z,-0.66
2022-12-19T10:18:01.341Z,-0.68
2022-12-19T10:20:31.688Z,-0.74
2022-12-19T10:23:14.678Z,-0.79
2022-12-19T10:25:52.714Z,-0.77
2022-12-19T10:28:40.067Z,-0.80
2022-12-19T10:31:20.937Z,-0.81
2022-12-19T10:33:54.765Z,-0.74
2022-12-19T10:36:42.315Z,-0.97
2022-12-19T10:39:20.451Z,-0.89
2022-12-19T10:41:51.796Z,-1.04
2022-12-19T10:44:19.951Z,-1.12
2022-12-19T10:46:49.137Z,-0.84
2022-12-19T10:49:18.515Z,-0.81
2022-12-19T10:51:59.848Z,-0.89
2022-12-19T10:54:39.367Z,-0.81
2022-12-19T10:57:23.689Z,-0.94
2022-12-19T10:59:59.038Z,-0.79
2022-12-19T11:02:41.076Z,-0.94
2022-12-19T11:05:24.048Z,-0.71
2022-12-19T11:08:03.689Z,-0.68
2022-12-19T11:12:25.319Z,-0.92
2022-12-19T11:18:17.094Z,-0.82
2022-12-19T11:21:55.276Z,-0.77
2022-12-19T11:29:25.414Z,-0.70
2022-12-19T11:29:32.231Z,-0.91
2022-12-19T11:29:34.226Z,-0.77
2022-12-19T11:30:46.431Z,-0.76
2022-12-19T11:33:58.207Z,-0.59
2022-12-19T11:36:32.711Z,-0.49
2022-12-19T11:39:00.719Z,-0.67
2022-12-19T11:41:33.581Z,-0.30
2022-12-19T11:44:03.926Z,-0.36
2022-12-19T11:46:38.102Z,-0.44
2022-12-19T11:49:12.304Z,-0.35
2022-12-19T11:51:45.753Z,-0.34
2022-12-19T11:54:17.676Z,-0.40
2022-12-19T11:56:47.160Z,-0.50
2022-12-19T11:59:19.466Z,-0.44
2022-12-19T12:02:03.780Z,-0.41
2022-12-19T12:04:56.489Z,-0.35
2022-12-19T12:07:51.299Z,-0.45
2022-12-19T12:17:07.468Z,-0.42
2022-12-19T12:21:52.044Z,-0.50
2022-12-19T12:31:01.414Z,-0.47
2022-12-19T12:31:05.655Z,-0.43
2022-12-19T12:31:26.705Z,-0.50
2022-12-19T12:31:51.875Z,-0.54
2022-12-19T12:31:58.104Z,-0.26
2022-12-19T12:35:09.089Z,-0.44
2022-12-19T12:35:45.388Z,-0.21
2022-12-19T12:39:40.599Z,-0.17
2022-12-19T12:42:16.817Z,-0.43
2022-12-19T12:44:46.996Z,-0.41
2022-12-19T12:47:23.061Z,-0.16
2022-12-19T12:49:54.365Z,-0.14
2022-12-19T12:52:27.435Z,-0.11
2022-12-19T12:54:55.615Z,-0.01
2022-12-19T12:57:36.416Z,-0.15
2022-12-19T13:00:34.475Z,-0.05
2022-12-19T13:03:08.270Z,-0.07
2022-12-19T13:05:40.543Z,-0.02
2022-12-19T13:08:46.251Z,-0.26
2022-12-19T13:11:36.920Z,-0.21
2022-12-19T13:14:05.303Z,-0.26
2022-12-19T13:16:53.501Z,-0.20
2022-12-19T13:19:28.463Z,-0.17
2022-12-19T13:22:18.015Z,-0.28
2022-12-19T13:24:47.247Z,-0.20
2022-12-19T13:27:40.546Z,-0.38
2022-12-19T13:30:17.174Z,-0.41
2022-12-19T13:33:10.272Z,-0.39
2022-12-19T13:36:38.085Z,-0.40
2022-12-19T13:40:02.347Z,-0.35
2022-12-19T13:41:46.468Z,-0.26
2022-12-19T13:44:19.327Z,-0.26
2022-12-19T13:46:49.874Z,-0.42
2022-12-19T13:49:31.278Z,-0.36
2022-12-19T13:52:06.147Z,-0.46
2022-12-19T13:54:45.857Z,-0.50
2022-12-19T13:57:22.099Z,-0.32
2022-12-19T14:00:00.147Z,-0.50
2022-12-19T14:02:32.395Z,-0.56
2022-12-19T14:05:02.903Z,-0.89
2022-12-19T14:07:37.440Z,-0.55
2022-12-19T14:11:38.276Z,-0.50
2022-12-19T14:13:53.229Z,-0.32
2022-12-19T14:15:59.828Z,-0.40
2022-12-19T14:18:42.732Z,-0.51
2022-12-19T14:22:07.203Z,-0.50
2022-12-19T14:24:16.291Z,-0.55
2022-12-19T14:28:21.571Z,-0.70
2022-12-19T14:30:08.608Z,-0.69
2022-12-19T14:33:44.186Z,-0.54
2022-12-19T14:36:10.603Z,-0.44
2022-12-19T14:39:21.229Z,-0.48
2022-12-19T14:41:09.383Z,-0.29
2022-12-19T14:43:59.488Z,-0.47
2022-12-19T14:51:51.760Z,-0.40
2022-12-19T14:54:21.864Z,-0.44
2022-12-19T14:54:31.212Z,-0.55
2022-12-19T14:56:00.405Z,-0.59
2022-12-19T14:58:54.063Z,-0.64
2022-12-19T15:01:23.496Z,-0.49
2022-12-19T15:04:48.111Z,-0.56
2022-12-19T15:07:07.428Z,-0.52
2022-12-19T15:11:04.924Z,-0.69
2022-12-19T15:14:46.691Z,-0.48
2022-12-19T15:15:41.125Z,-0.68
2022-12-19T15:18:22.084Z,-0.67
2022-12-19T15:20:50.002Z,-0.66
2022-12-19T15:23:21.928Z,-0.64
2022-12-19T15:26:07.020Z,-0.67
2022-12-19T15:28:41.616Z,-0.76
2022-12-19T15:31:19.291Z,-0.65
2022-12-19T15:34:23.276Z,-0.78
2022-12-19T15:36:34.586Z,-0.82
2022-12-19T15:39:03.618Z,-0.76
2022-12-19T15:41:31.791Z,-0.77
2022-12-19T15:44:04.615Z,-0.76
2022-12-19T15:46:34.448Z,-0.83
2022-12-19T15:49:02.428Z,-0.78
2022-12-19T15:51:30.187Z,-0.71
2022-12-19T15:54:22.236Z,-0.79
2022-12-19T15:56:48.260Z,-0.75
2022-12-19T15:59:24.175Z,-0.87
2022-12-19T16:01:53.760Z,-0.82
2022-12-19T16:04:24.153Z,-0.74
2022-12-19T16:06:52.333Z,-0.74
2022-12-19T16:09:22.103Z,-0.81
2022-12-19T16:11:49.984Z,-0.77
2022-12-19T16:14:17.737Z,-0.79
2022-12-19T16:16:48.769Z,-0.80
2022-12-19T16:19:24.961Z,-0.72
2022-12-19T16:21:53.122Z,-0.73
2022-12-19T16:24:21.553Z,-0.76
2022-12-19T16:26:52.664Z,-0.75
2022-12-19T16:29:22.104Z,-0.81
2022-12-19T16:31:49.968Z,-0.81
2022-12-19T16:34:19.415Z,-0.74
2022-12-19T16:36:48.883Z,-0.74
2022-12-19T16:39:16.961Z,-0.74
2022-12-19T16:41:45.368Z,-0.74
2022-12-19T16:44:19.327Z,-0.68
2022-12-19T16:46:50.805Z,-0.72
2022-12-19T16:49:22.768Z,-0.66
2022-12-19T16:51:52.934Z,-0.64
2022-12-19T16:54:21.829Z,-0.67
2022-12-19T16:56:50.419Z,-0.68
2022-12-19T16:59:20.357Z,-0.62
2022-12-19T17:01:48.652Z,-0.64
2022-12-19T17:04:18.165Z,-0.68
2022-12-19T17:06:45.910Z,-0.64
2022-12-19T17:09:16.593Z,-0.61
2022-12-19T17:11:46.953Z,-0.61
2022-12-19T17:14:17.996Z,-0.73
2022-12-19T17:16:46.066Z,-0.75
2022-12-19T17:19:21.532Z,-0.72
2022-12-19T17:21:49.560Z,-0.77
2022-12-19T17:24:19.206Z,-0.92
2022-12-19T17:26:47.839Z,-0.67
2022-12-19T17:29:16.360Z,-0.67
2022-12-19T17:31:44.494Z,-0.66
2022-12-19T17:34:17.963Z,-0.66
2022-12-19T17:36:45.899Z,-0.58
2022-12-19T17:39:21.303Z,-0.58
2022-12-19T17:41:49.799Z,-0.65
2022-12-19T17:44:17.409Z,-0.60
2022-12-19T17:46:45.360Z,-0.57
2022-12-19T17:49:18.066Z,-0.50
2022-12-19T17:51:49.980Z,-0.52
2022-12-19T17:54:17.762Z,-0.55
2022-12-19T17:56:46.796Z,-0.64
2022-12-19T17:59:14.597Z,-0.60
2022-12-19T18:01:43.210Z,-0.68
2022-12-19T18:04:13.738Z,-0.83
2022-12-19T18:06:42.032Z,-0.65
2022-12-19T18:09:18.185Z,-0.65
2022-12-19T18:11:47.572Z,-0.59
2022-12-19T18:14:16.057Z,-0.57
2022-12-19T18:16:44.107Z,-0.56
2022-12-19T18:19:18.147Z,-0.55
2022-12-19T18:21:45.843Z,-0.52
2022-12-19T18:24:14.811Z,-0.46
2022-12-19T18:26:42.457Z,-0.42
2022-12-19T18:29:11.539Z,-0.46
2022-12-19T18:31:43.443Z,-0.48
2022-12-19T18:34:19.612Z,-0.47
2022-12-19T18:36:47.207Z,-0.47
2022-12-19T18:39:20.666Z,-0.43
2022-12-19T18:41:48.788Z,-0.47
2022-12-19T18:44:18.181Z,-0.51
2022-12-19T18:46:46.394Z,-0.41
2022-12-19T18:49:15.627Z,-0.42
2022-12-19T18:51:44.522Z,-0.38
2022-12-19T18:54:14.058Z,-0.40
2022-12-19T18:56:41.732Z,-0.42
2022-12-19T18:59:09.355Z,-0.43
2022-12-19T19:01:39.228Z,-0.48
2022-12-19T19:04:07.133Z,-0.46
2022-12-19T19:06:38.105Z,-0.52
2022-12-19T19:09:07.698Z,-0.40
2022-12-19T19:11:36.430Z,-0.41
2022-12-19T19:14:04.186Z,-0.40
2022-12-19T19:16:31.824Z,-0.45
2022-12-19T19:19:01.017Z,-0.44
2022-12-19T19:21:30.619Z,-0.56
2022-12-19T19:24:01.505Z,-0.59
2022-12-19T19:26:29.044Z,-0.55
2022-12-19T19:28:56.686Z,-0.44
2022-12-19T19:31:26.603Z,-0.49
2022-12-19T19:33:56.750Z,-0.45
2022-12-19T19:36:29.535Z,-0.46
2022-12-19T19:38:57.456Z,-0.47
2022-12-19T19:41:29.507Z,-0.47
2022-12-19T19:43:57.200Z,-0.45
2022-12-19T19:46:24.870Z,-0.46
2022-12-19T19:48:52.490Z,-0.44
2022-12-19T19:51:20.312Z,-0.44
2022-12-19T19:53:49.331Z,-0.45
2022-12-19T19:56:16.969Z,-0.39
2022-12-19T19:58:44.681Z,-0.32
2022-12-19T20:01:13.850Z,-0.40
2022-12-19T20:03:44.683Z,-0.42
2022-12-19T20:06:12.863Z,-0.49
2022-12-19T20:08:41.104Z,-0.47
2022-12-19T20:11:10.719Z,-0.37
2022-12-19T20:13:39.210Z,-0.39
2022-12-19T20:16:08.745Z,-0.32
2022-12-19T20:18:37.228Z,-0.31
2022-12-19T20:21:09.295Z,-0.31
2022-12-19T20:23:40.409Z,-0.26
2022-12-19T20:26:08.294Z,-0.34
2022-12-19T20:28:41.004Z,-0.37
2022-12-19T20:31:13.430Z,-0.48
2022-12-19T20:33:41.070Z,-0.48
2022-12-19T20:36:10.606Z,-0.42
2022-12-19T20:38:38.448Z,-0.36
2022-12-19T20:41:06.404Z,-0.43
2022-12-19T20:43:34.685Z,-0.32
2022-12-19T20:46:05.234Z,-0.28
2022-12-19T20:48:33.108Z,-0.36
2022-12-19T20:51:01.576Z,-0.31
2022-12-19T20:53:30.197Z,-0.37
2022-12-19T20:55:59.815Z,-0.32
2022-12-19T20:58:28.044Z,-0.22
2022-12-19T21:00:56.039Z,-0.43
2022-12-19T21:03:28.606Z,-0.47
2022-12-19T21:05:57.537Z,-0.56
2022-12-19T21:08:26.157Z,-0.58
2022-12-19T21:10:54.160Z,-0.57
2022-12-19T21:13:22.169Z,-0.62
2022-12-19T21:15:53.177Z,-0.62
2022-12-19T21:18:20.940Z,-0.71
2022-12-19T21:20:50.861Z,-0.64
2022-12-19T21:23:18.997Z,-0.62
2022-12-19T21:25:46.606Z,-0.61
2022-12-19T21:28:14.510Z,-0.79
2022-12-19T21:30:42.236Z,-0.63
2022-12-19T21:33:10.301Z,-0.65
2022-12-19T21:35:38.890Z,-0.62
2022-12-19T21:38:07.795Z,-0.63
2022-12-19T21:40:36.784Z,-0.59
2022-12-19T21:43:11.459Z,-0.61
2022-12-19T21:45:39.844Z,-0.61
2022-12-19T21:48:07.805Z,-0.51
2022-12-19T21:50:35.413Z,-0.55
2022-12-19T21:53:03.181Z,-0.54
2022-12-19T21:55:32.169Z,-0.56
2022-12-19T21:58:00.591Z,-0.62
2022-12-19T22:00:28.396Z,-0.63
2022-12-19T22:03:13.169Z,-0.61
2022-12-19T22:05:41.983Z,-0.64
2022-12-19T22:08:10.714Z,-0.62
2022-12-19T22:10:40.531Z,-0.55
2022-12-19T22:13:08.137Z,-0.53
2022-12-19T22:15:36.428Z,-0.44
2022-12-19T22:18:04.067Z,-0.42
2022-12-19T22:20:31.647Z,-0.46
2022-12-19T22:22:59.253Z,-0.44
2022-12-19T22:25:26.842Z,-0.43
2022-12-19T22:27:57.488Z,-0.35
2022-12-19T22:30:25.057Z,-0.30
2022-12-19T22:32:53.011Z,-0.30
2022-12-19T22:35:20.643Z,-0.20
2022-12-19T22:37:48.370Z,-0.29
2022-12-19T22:40:16.311Z,-0.13
2022-12-19T22:42:43.960Z,-0.18
2022-12-19T22:45:13.177Z,-0.15
2022-12-19T22:47:42.157Z,-0.11
2022-12-19T22:50:10.422Z,-0.14
2022-12-19T22:52:38.859Z,-0.18
2022-12-19T22:55:07.385Z,-0.20
2022-12-19T22:57:35.047Z,-0.15
2022-12-19T23:00:02.699Z,-0.13
2022-12-19T23:02:31.726Z,-0.08
2022-12-19T23:04:59.483Z,-0.03
2022-12-19T23:07:27.081Z,0.00
2022-12-19T23:09:54.808Z,0.02
2022-12-19T23:12:22.679Z,-0.04
2022-12-19T23:14:50.269Z,0.05
2022-12-19T23:17:18.327Z,0.03
2022-12-19T23:19:47.314Z,0.08
2022-12-19T23:22:15.267Z,0.10
2022-12-19T23:24:44.686Z,0.10
2022-12-19T23:27:12.298Z,0.11
2022-12-19T23:29:39.939Z,0.19
2022-12-19T23:32:07.698Z,0.11
2022-12-19T23:34:35.452Z,0.13
2022-12-19T23:37:12.452Z,0.17
2022-12-19T23:39:40.446Z,0.13
2022-12-19T23:42:08.046Z,0.16
2022-12-19T23:44:36.009Z,0.16
2022-12-19T23:47:04.309Z,-0.09
2022-12-19T23:49:32.546Z,0.16
2022-12-19T23:52:00.269Z,0.10
2022-12-19T23:54:29.256Z,0.11
2022-12-19T23:56:56.925Z,0.11
2022-12-19T23:59:24.583Z,0.18
